createdAt,value
2023-02-16T00:00:00.448Z,56.30
2023-02-16T00:01:00.471Z,53.90
2023-02-16T00:02:00.536Z,53.70
2023-02-16T00:03:00.428Z,56.80
2023-02-16T00:04:00.401Z,59.50
2023-02-16T00:05:00.385Z,56.40
2023-02-16T00:06:00.410Z,55.30
2023-02-16T00:07:00.389Z,54.60
2023-02-16T00:08:00.373Z,58.90
2023-02-16T00:09:00.330Z,59.90
2023-02-16T00:10:00.326Z,63.20
2023-02-16T00:11:00.524Z,60.30
2023-02-16T00:12:00.308Z,59.40
2023-02-16T00:13:00.277Z,54.40
2023-02-16T00:14:00.268Z,57.00
2023-02-16T00:15:00.253Z,58.60
2023-02-16T00:16:00.361Z,59.90
2023-02-16T00:17:00.245Z,56.20
2023-02-16T00:18:00.225Z,58.10
2023-02-16T00:19:00.223Z,59.10
2023-02-16T00:20:00.192Z,61.70
2023-02-16T00:21:00.176Z,59.50
2023-02-16T00:22:00.294Z,57.10
2023-02-16T00:23:00.151Z,56.40
2023-02-16T00:24:00.138Z,53.50
2023-02-16T00:25:00.155Z,55.30
2023-02-16T00:26:00.125Z,56.40
2023-02-16T00:27:00.112Z,55.40
2023-02-16T00:28:00.115Z,60.40
2023-02-16T00:29:00.122Z,56.50
2023-02-16T00:30:00.124Z,56.20
2023-02-16T00:31:00.221Z,54.60
2023-02-16T00:32:00.259Z,59.70
2023-02-16T00:33:00.024Z,54.30
2023-02-16T00:34:00.012Z,57.30
2023-02-16T00:35:00.015Z,64.40
2023-02-16T00:35:59.990Z,65.60
2023-02-16T00:36:59.988Z,64.00
2023-02-16T00:37:59.964Z,62.50
2023-02-16T00:38:59.954Z,68.30
2023-02-16T00:39:59.937Z,70.10
2023-02-16T00:40:59.930Z,67.80
2023-02-16T00:41:59.931Z,69.60
2023-02-16T00:42:59.902Z,70.50
2023-02-16T00:43:59.881Z,65.70
2023-02-16T00:44:59.874Z,67.30
2023-02-16T00:45:59.905Z,73.00
2023-02-16T00:46:59.862Z,67.70
2023-02-16T00:47:59.834Z,72.90
2023-02-16T00:48:59.829Z,75.60
2023-02-16T00:49:59.812Z,84.40
2023-02-16T00:50:59.823Z,77.80
2023-02-16T00:51:59.804Z,92.70
2023-02-16T00:52:59.773Z,84.10
2023-02-16T00:53:59.760Z,89.20
2023-02-16T00:54:59.746Z,78.70
2023-02-16T00:55:59.731Z,80.20
2023-02-16T00:56:59.736Z,122.50
2023-02-16T00:57:59.702Z,82.30
2023-02-16T00:58:59.700Z,81.00
2023-02-16T00:59:59.680Z,82.40
2023-02-16T01:00:59.666Z,83.70
2023-02-16T01:01:59.690Z,91.80
2023-02-16T01:02:59.697Z,98.20
2023-02-16T01:03:59.646Z,116.80
2023-02-16T01:04:59.632Z,139.40
2023-02-16T01:05:59.600Z,156.10
2023-02-16T01:06:59.609Z,135.10
2023-02-16T01:07:59.593Z,126.50
2023-02-16T01:08:59.570Z,337.60
2023-02-16T01:09:59.544Z,195.20
2023-02-16T01:10:59.534Z,239.20
2023-02-16T01:11:59.527Z,221.60
2023-02-16T01:12:59.522Z,268.30
2023-02-16T01:13:59.494Z,283.80
2023-02-16T01:14:59.482Z,143.30
2023-02-16T01:15:59.607Z,112.80
2023-02-16T01:16:59.459Z,323.40
2023-02-16T01:17:59.453Z,364.20
2023-02-16T01:18:59.431Z,273.90
2023-02-16T01:19:59.414Z,334.60
2023-02-16T01:20:59.405Z,254.70
2023-02-16T01:21:59.392Z,291.20
2023-02-16T01:22:59.410Z,406.20
2023-02-16T01:23:59.367Z,429.90
2023-02-16T01:24:59.352Z,454.70
2023-02-16T01:25:59.346Z,433.20
2023-02-16T01:26:59.327Z,264.60
2023-02-16T01:27:59.326Z,246.70
2023-02-16T01:28:59.305Z,187.70
2023-02-16T01:29:59.352Z,270.30
2023-02-16T01:30:59.328Z,247.70
2023-02-16T01:31:59.465Z,223.10
2023-02-16T01:32:59.268Z,211.90
2023-02-16T01:33:59.233Z,245.90
2023-02-16T01:34:59.224Z,206.40
2023-02-16T01:35:59.248Z,182.00
2023-02-16T01:36:59.201Z,202.10
2023-02-16T01:37:59.202Z,173.30
2023-02-16T01:38:59.195Z,358.30
2023-02-16T01:39:59.161Z,251.20
2023-02-16T01:40:59.148Z,349.60
2023-02-16T01:41:59.136Z,250.10
2023-02-16T01:42:59.151Z,532.90
2023-02-16T01:43:59.102Z,437.80
2023-02-16T01:44:59.096Z,366.10
2023-02-16T01:45:59.083Z,352.60
2023-02-16T01:46:59.064Z,413.10
2023-02-16T01:47:59.059Z,409.10
2023-02-16T01:48:59.061Z,314.60
2023-02-16T01:50:00.782Z,312.10
2023-02-16T01:50:59.021Z,310.30
2023-02-16T01:51:59.019Z,363.60
2023-02-16T01:52:58.989Z,353.10
2023-02-16T01:53:58.991Z,202.00
2023-02-16T01:54:59.064Z,273.10
2023-02-16T01:55:58.955Z,354.90
2023-02-16T01:56:58.944Z,261.60
2023-02-16T01:57:58.925Z,265.00
2023-02-16T01:58:58.932Z,319.70
2023-02-16T01:59:58.898Z,440.00
2023-02-16T02:00:58.895Z,408.20
2023-02-16T02:01:58.979Z,532.00
2023-02-16T02:02:58.882Z,486.30
2023-02-16T02:03:58.864Z,369.10
2023-02-16T02:04:58.836Z,419.20
2023-02-16T02:05:58.826Z,465.40
2023-02-16T02:06:58.814Z,320.30
2023-02-16T02:07:58.805Z,178.60
2023-02-16T02:08:58.800Z,136.50
2023-02-16T02:09:58.773Z,146.00
2023-02-16T02:10:58.781Z,177.40
2023-02-16T02:11:58.749Z,183.70
2023-02-16T02:12:58.803Z,290.20
2023-02-16T02:13:58.742Z,251.60
2023-02-16T02:14:58.705Z,184.80
2023-02-16T02:15:58.726Z,125.10
2023-02-16T02:16:58.691Z,184.20
2023-02-16T02:17:58.664Z,201.30
2023-02-16T02:18:58.675Z,167.30
2023-02-16T02:19:58.645Z,232.50
2023-02-16T02:20:58.628Z,283.30
2023-02-16T02:21:58.618Z,325.00
2023-02-16T02:22:58.606Z,387.90
2023-02-16T02:23:58.615Z,252.70
2023-02-16T02:24:58.593Z,358.60
2023-02-16T02:25:58.560Z,346.90
2023-02-16T02:26:58.573Z,334.00
2023-02-16T02:27:58.541Z,227.40
2023-02-16T02:28:58.565Z,227.50
2023-02-16T02:29:58.542Z,400.20
2023-02-16T02:30:58.591Z,473.70
2023-02-16T02:31:58.605Z,574.00
2023-02-16T02:32:58.474Z,402.90
2023-02-16T02:33:58.483Z,283.40
2023-02-16T02:34:58.449Z,264.50
2023-02-16T02:35:58.442Z,367.10
2023-02-16T02:36:58.425Z,339.50
2023-02-16T02:37:58.417Z,363.20
2023-02-16T02:38:58.414Z,416.50
2023-02-16T02:39:58.383Z,643.20
2023-02-16T02:40:58.370Z,237.10
2023-02-16T02:41:58.359Z,344.90
2023-02-16T02:42:58.369Z,322.00
2023-02-16T02:43:58.353Z,383.00
2023-02-16T02:44:58.324Z,301.00
2023-02-16T02:45:58.303Z,198.10
2023-02-16T02:46:58.302Z,129.90
2023-02-16T02:47:58.280Z,164.70
2023-02-16T02:48:58.293Z,444.80
2023-02-16T02:49:58.253Z,279.80
2023-02-16T02:50:58.245Z,191.30
2023-02-16T02:51:58.230Z,201.10
2023-02-16T02:52:58.219Z,192.20
2023-02-16T02:53:58.241Z,312.70
2023-02-16T02:54:58.192Z,145.40
2023-02-16T02:55:58.180Z,199.60
2023-02-16T02:56:58.171Z,203.50
2023-02-16T02:57:58.159Z,397.60
2023-02-16T02:58:58.164Z,275.60
2023-02-16T02:59:58.150Z,190.20
2023-02-16T03:00:58.151Z,178.90
2023-02-16T03:01:58.147Z,200.20
2023-02-16T03:02:58.096Z,278.50
2023-02-16T03:03:58.092Z,387.00
2023-02-16T03:04:58.088Z,302.60
2023-02-16T03:05:58.060Z,285.40
2023-02-16T03:06:58.045Z,309.40
2023-02-16T03:07:58.032Z,383.10
2023-02-16T03:08:58.017Z,235.00
2023-02-16T03:09:58.020Z,252.60
2023-02-16T03:10:57.990Z,341.30
2023-02-16T03:11:57.974Z,387.00
2023-02-16T03:12:57.964Z,257.00
2023-02-16T03:13:57.958Z,356.20
2023-02-16T03:14:57.983Z,317.20
2023-02-16T03:15:57.965Z,330.30
2023-02-16T03:16:57.914Z,270.80
2023-02-16T03:17:57.903Z,293.40
2023-02-16T03:18:57.890Z,353.00
2023-02-16T03:19:57.888Z,275.50
2023-02-16T03:20:57.861Z,244.20
2023-02-16T03:21:57.856Z,257.20
2023-02-16T03:22:57.839Z,292.70
2023-02-16T03:23:57.822Z,220.30
2023-02-16T03:24:57.820Z,214.00
2023-02-16T03:25:57.796Z,296.00
2023-02-16T03:26:57.789Z,281.90
2023-02-16T03:27:57.781Z,231.90
2023-02-16T03:28:57.764Z,334.50
2023-02-16T03:29:57.803Z,350.60
2023-02-16T03:30:57.769Z,268.50
2023-02-16T03:31:57.820Z,293.70
2023-02-16T03:32:57.706Z,187.70
2023-02-16T03:33:57.691Z,157.80
2023-02-16T03:34:57.688Z,158.10
2023-02-16T03:35:57.665Z,168.30
2023-02-16T03:36:57.648Z,265.20
2023-02-16T03:37:57.635Z,294.50
2023-02-16T03:38:57.626Z,271.10
2023-02-16T03:39:57.630Z,215.00
2023-02-16T03:40:57.599Z,160.80
2023-02-16T03:41:57.586Z,192.00
2023-02-16T03:42:57.573Z,182.70
2023-02-16T03:43:57.562Z,155.30
2023-02-16T03:44:57.561Z,117.70
2023-02-16T03:45:57.593Z,177.00
2023-02-16T03:46:57.544Z,184.50
2023-02-16T03:47:57.508Z,158.80
2023-02-16T03:48:57.495Z,140.60
2023-02-16T03:49:57.496Z,189.10
2023-02-16T03:50:57.473Z,209.70
2023-02-16T03:51:57.455Z,183.20
2023-02-16T03:52:57.442Z,163.90
2023-02-16T03:53:57.427Z,154.20
2023-02-16T03:54:57.434Z,116.20
2023-02-16T03:55:57.403Z,136.00
2023-02-16T03:56:57.424Z,124.80
2023-02-16T03:57:57.376Z,138.50
2023-02-16T03:58:57.368Z,166.90
2023-02-16T03:59:59.275Z,106.30
2023-02-16T04:00:57.338Z,137.30
2023-02-16T04:01:57.332Z,106.20
2023-02-16T04:02:57.345Z,104.20
2023-02-16T04:03:57.417Z,106.90
2023-02-16T04:04:57.296Z,125.90
2023-02-16T04:05:57.292Z,122.00
2023-02-16T04:06:57.262Z,111.60
2023-02-16T04:07:57.249Z,107.40
2023-02-16T04:08:57.240Z,110.50
2023-02-16T04:09:57.229Z,105.50
2023-02-16T04:10:57.228Z,107.90
2023-02-16T04:11:57.205Z,89.50
2023-02-16T04:12:57.187Z,109.80
2023-02-16T04:13:57.175Z,96.90
2023-02-16T04:14:57.162Z,103.00
2023-02-16T04:15:57.161Z,106.40
2023-02-16T04:16:57.137Z,128.00
2023-02-16T04:17:57.137Z,120.60
2023-02-16T04:18:57.136Z,124.00
2023-02-16T04:19:57.105Z,124.00
2023-02-16T04:20:57.107Z,121.90
2023-02-16T04:21:57.072Z,163.70
2023-02-16T04:22:57.068Z,161.00
2023-02-16T04:23:57.050Z,220.40
2023-02-16T04:24:57.036Z,178.90
2023-02-16T04:25:57.043Z,185.90
2023-02-16T04:26:57.016Z,152.40
2023-02-16T04:27:57.002Z,188.20
2023-02-16T04:28:56.989Z,153.00
2023-02-16T04:29:57.010Z,187.50
2023-02-16T04:30:57.135Z,179.50
2023-02-16T04:31:57.095Z,185.70
2023-02-16T04:32:56.935Z,184.30
2023-02-16T04:33:56.923Z,181.80
2023-02-16T04:34:56.929Z,142.10
2023-02-16T04:35:56.928Z,157.30
2023-02-16T04:36:56.887Z,171.40
2023-02-16T04:37:56.871Z,186.50
2023-02-16T04:38:56.858Z,136.40
2023-02-16T04:39:56.842Z,175.30
2023-02-16T04:40:56.860Z,163.10
2023-02-16T04:41:56.816Z,181.70
2023-02-16T04:42:56.805Z,181.90
2023-02-16T04:43:56.790Z,185.00
2023-02-16T04:44:56.787Z,179.70
2023-02-16T04:45:56.849Z,159.50
2023-02-16T04:46:56.763Z,111.80
2023-02-16T04:47:56.753Z,135.80
2023-02-16T04:48:56.738Z,142.70
2023-02-16T04:49:56.719Z,176.50
2023-02-16T04:50:56.738Z,168.30
2023-02-16T04:51:56.704Z,172.90
2023-02-16T04:52:56.682Z,153.50
2023-02-16T04:53:56.682Z,116.90
2023-02-16T04:54:56.660Z,117.50
2023-02-16T04:55:56.658Z,133.80
2023-02-16T04:56:56.631Z,133.00
2023-02-16T04:57:56.631Z,142.40
2023-02-16T04:58:56.611Z,136.30
2023-02-16T04:59:56.596Z,140.40
2023-02-16T05:00:56.606Z,163.10
2023-02-16T05:01:56.659Z,199.40
2023-02-16T05:02:56.565Z,137.60
2023-02-16T05:03:56.541Z,118.60
2023-02-16T05:04:56.530Z,134.30
2023-02-16T05:05:56.546Z,188.40
2023-02-16T05:06:56.523Z,175.20
2023-02-16T05:07:56.496Z,152.00
2023-02-16T05:08:56.482Z,160.80
2023-02-16T05:09:56.465Z,121.10
2023-02-16T05:10:56.471Z,118.40
2023-02-16T05:11:56.445Z,137.70
2023-02-16T05:12:56.434Z,137.10
2023-02-16T05:13:56.453Z,118.90
2023-02-16T05:14:56.411Z,104.70
2023-02-16T05:15:56.485Z,123.50
2023-02-16T05:16:56.378Z,162.00
2023-02-16T05:17:56.367Z,150.90
2023-02-16T05:18:58.708Z,121.00
2023-02-16T05:19:56.345Z,132.50
2023-02-16T05:20:56.385Z,223.70
2023-02-16T05:21:56.318Z,172.30
2023-02-16T05:22:56.335Z,148.30
2023-02-16T05:23:56.295Z,217.50
2023-02-16T05:24:56.279Z,232.90
2023-02-16T05:25:56.282Z,320.60
2023-02-16T05:26:56.248Z,204.00
2023-02-16T05:27:56.252Z,195.50
2023-02-16T05:28:56.226Z,236.80
2023-02-16T05:29:56.288Z,200.50
2023-02-16T05:30:56.268Z,188.90
2023-02-16T05:31:56.245Z,134.40
2023-02-16T05:32:56.214Z,188.30
2023-02-16T05:33:56.236Z,130.40
2023-02-16T05:34:56.164Z,129.50
2023-02-16T05:35:56.164Z,114.00
2023-02-16T05:36:56.139Z,94.30
2023-02-16T05:37:56.120Z,80.30
2023-02-16T05:38:56.117Z,75.00
2023-02-16T05:39:56.098Z,79.30
2023-02-16T05:40:56.096Z,71.90
2023-02-16T05:41:56.073Z,74.50
2023-02-16T05:42:56.051Z,68.80
2023-02-16T05:43:56.064Z,70.10
2023-02-16T05:44:56.020Z,72.00
2023-02-16T05:45:56.098Z,73.40
2023-02-16T05:46:56.010Z,72.80
2023-02-16T05:47:56.002Z,76.30
2023-02-16T05:48:56.006Z,72.30
2023-02-16T05:49:55.960Z,75.70
2023-02-16T05:50:55.947Z,68.40
2023-02-16T05:51:55.955Z,76.10
2023-02-16T05:52:55.917Z,91.60
2023-02-16T05:53:55.914Z,74.60
2023-02-16T05:54:55.917Z,74.10
2023-02-16T05:55:55.881Z,68.70
2023-02-16T05:56:55.886Z,75.70
2023-02-16T05:57:55.864Z,71.50
2023-02-16T05:58:55.852Z,75.60
2023-02-16T05:59:55.840Z,76.10
2023-02-16T06:00:55.816Z,75.50
2023-02-16T06:01:55.818Z,99.30
2023-02-16T06:02:55.892Z,81.70
2023-02-16T06:03:55.850Z,99.20
2023-02-16T06:04:55.776Z,82.30
2023-02-16T06:05:55.752Z,81.80
2023-02-16T06:06:55.796Z,83.70
2023-02-16T06:07:55.736Z,87.20
2023-02-16T06:08:55.708Z,85.10
2023-02-16T06:09:55.697Z,87.20
2023-02-16T06:10:55.818Z,134.90
2023-02-16T06:11:55.699Z,143.90
2023-02-16T06:12:55.662Z,105.90
2023-02-16T06:13:55.648Z,129.70
2023-02-16T06:14:55.639Z,103.40
2023-02-16T06:15:55.678Z,92.00
2023-02-16T06:16:55.624Z,104.80
2023-02-16T06:17:55.597Z,85.90
2023-02-16T06:18:55.587Z,83.80
2023-02-16T06:19:55.572Z,136.10
2023-02-16T06:20:55.558Z,166.30
2023-02-16T06:21:55.569Z,152.70
2023-02-16T06:22:55.530Z,148.30
2023-02-16T06:23:55.543Z,245.20
2023-02-16T06:24:55.520Z,184.40
2023-02-16T06:25:55.496Z,217.50
2023-02-16T06:26:55.528Z,231.40
2023-02-16T06:27:55.477Z,177.50
2023-02-16T06:28:55.457Z,149.60
2023-02-16T06:29:55.499Z,160.40
2023-02-16T06:30:55.489Z,118.00
2023-02-16T06:31:55.661Z,148.80
2023-02-16T06:32:55.437Z,149.70
2023-02-16T06:33:55.401Z,138.20
2023-02-16T06:34:55.384Z,120.80
2023-02-16T06:35:55.372Z,120.30
2023-02-16T06:36:55.438Z,113.30
2023-02-16T06:37:55.344Z,115.70
2023-02-16T06:38:55.337Z,100.10
2023-02-16T06:39:55.330Z,111.50
2023-02-16T06:40:55.306Z,130.60
2023-02-16T06:41:55.307Z,142.70
2023-02-16T06:42:55.307Z,109.90
2023-02-16T06:43:55.278Z,117.50
2023-02-16T06:44:55.256Z,104.80
2023-02-16T06:45:55.246Z,114.60
2023-02-16T06:46:55.334Z,99.60
2023-02-16T06:47:55.217Z,105.10
2023-02-16T06:48:55.208Z,150.70
2023-02-16T06:49:55.201Z,114.60
2023-02-16T06:50:55.186Z,116.70
2023-02-16T06:51:55.199Z,137.10
2023-02-16T06:52:55.158Z,131.10
2023-02-16T06:53:55.158Z,107.30
2023-02-16T06:54:55.130Z,124.40
2023-02-16T06:55:55.121Z,103.10
2023-02-16T06:56:55.123Z,104.10
2023-02-16T06:57:55.097Z,83.70
2023-02-16T06:58:55.214Z,106.50
2023-02-16T06:59:55.070Z,99.20
2023-02-16T07:00:55.143Z,91.00
2023-02-16T07:01:55.084Z,94.00
2023-02-16T07:02:55.061Z,96.20
2023-02-16T07:03:55.021Z,85.80
2023-02-16T07:04:55.006Z,105.50
2023-02-16T07:05:54.997Z,100.30
2023-02-16T07:06:54.994Z,136.50
2023-02-16T07:07:54.969Z,100.40
2023-02-16T07:08:54.958Z,82.60
2023-02-16T07:09:54.947Z,89.00
2023-02-16T07:10:54.937Z,84.40
2023-02-16T07:11:54.951Z,74.20
2023-02-16T07:12:54.905Z,75.40
2023-02-16T07:13:54.903Z,83.30
2023-02-16T07:14:54.921Z,85.20
2023-02-16T07:15:54.895Z,89.70
2023-02-16T07:16:54.855Z,107.30
2023-02-16T07:17:54.858Z,86.20
2023-02-16T07:18:54.825Z,94.40
2023-02-16T07:19:54.814Z,90.60
2023-02-16T07:20:54.798Z,97.60
2023-02-16T07:21:54.789Z,107.80
2023-02-16T07:22:54.790Z,100.70
2023-02-16T07:23:54.771Z,125.40
2023-02-16T07:24:54.751Z,103.50
2023-02-16T07:25:54.746Z,100.00
2023-02-16T07:26:54.730Z,138.30
2023-02-16T07:27:54.734Z,260.80
2023-02-16T07:28:54.723Z,220.70
2023-02-16T07:29:54.784Z,404.70
2023-02-16T07:30:54.818Z,233.80
2023-02-16T07:31:54.806Z,236.70
2023-02-16T07:32:54.660Z,164.90
2023-02-16T07:33:54.631Z,174.70
2023-02-16T07:34:54.622Z,185.30
2023-02-16T07:35:54.609Z,175.60
2023-02-16T07:36:54.600Z,115.40
2023-02-16T07:37:54.608Z,101.20
2023-02-16T07:38:54.571Z,100.60
2023-02-16T07:39:54.554Z,113.80
2023-02-16T07:40:54.543Z,156.80
2023-02-16T07:41:54.529Z,123.80
2023-02-16T07:42:54.523Z,139.40
2023-02-16T07:43:54.524Z,170.00
2023-02-16T07:44:54.492Z,118.00
2023-02-16T07:45:54.631Z,92.70
2023-02-16T07:46:54.577Z,106.70
2023-02-16T07:47:54.456Z,134.20
2023-02-16T07:48:54.473Z,155.10
2023-02-16T07:49:54.426Z,98.40
2023-02-16T07:50:54.414Z,111.80
2023-02-16T07:51:54.399Z,107.20
2023-02-16T07:52:54.384Z,100.50
2023-02-16T07:53:54.390Z,219.70
2023-02-16T07:54:54.361Z,281.20
2023-02-16T07:55:54.376Z,163.70
2023-02-16T07:56:54.343Z,93.90
2023-02-16T07:57:54.333Z,136.40
2023-02-16T07:58:54.331Z,130.90
2023-02-16T07:59:54.304Z,110.50
2023-02-16T08:00:54.278Z,88.10
2023-02-16T08:01:54.451Z,112.60
2023-02-16T08:02:54.492Z,90.40
2023-02-16T08:03:54.257Z,100.60
2023-02-16T08:04:54.249Z,97.80
2023-02-16T08:05:54.215Z,102.20
2023-02-16T08:06:54.202Z,170.60
2023-02-16T08:07:54.193Z,131.10
2023-02-16T08:08:54.189Z,101.60
2023-02-16T08:09:54.168Z,107.10
2023-02-16T08:10:54.146Z,89.90
2023-02-16T08:11:54.140Z,80.70
2023-02-16T08:12:54.122Z,64.80
2023-02-16T08:13:54.147Z,67.80
2023-02-16T08:14:54.102Z,62.30
2023-02-16T08:15:54.089Z,66.60
2023-02-16T08:16:56.336Z,69.80
2023-02-16T08:17:54.065Z,89.10
2023-02-16T08:18:54.091Z,68.70
2023-02-16T08:19:54.039Z,70.90
2023-02-16T08:21:03.890Z,77.50
2023-02-16T08:21:54.015Z,102.20
2023-02-16T08:22:54.000Z,72.60
2023-02-16T08:23:54.004Z,63.80
2023-02-16T08:24:53.980Z,84.40
2023-02-16T08:25:53.964Z,81.30
2023-02-16T08:26:54.024Z,65.90
2023-02-16T08:27:53.939Z,62.80
2023-02-16T08:28:53.943Z,63.90
2023-02-16T08:29:53.958Z,64.70
2023-02-16T08:30:53.994Z,55.80
2023-02-16T08:31:53.954Z,59.80
2023-02-16T08:32:53.872Z,56.90
2023-02-16T08:33:53.880Z,51.80
2023-02-16T08:34:53.868Z,62.10
2023-02-16T08:35:53.840Z,51.70
2023-02-16T08:36:53.820Z,54.80
2023-02-16T08:37:53.807Z,53.40
2023-02-16T08:38:53.809Z,58.30
2023-02-16T08:39:53.797Z,56.60
2023-02-16T08:40:53.770Z,55.60
2023-02-16T08:41:53.760Z,55.10
2023-02-16T08:42:53.744Z,53.90
2023-02-16T08:43:53.750Z,56.60
2023-02-16T08:44:53.780Z,57.20
2023-02-16T08:45:53.764Z,60.80
2023-02-16T08:46:53.692Z,63.70
2023-02-16T08:47:53.685Z,60.30
2023-02-16T08:48:55.811Z,55.90
2023-02-16T08:49:53.653Z,58.00
2023-02-16T08:50:53.983Z,59.00
2023-02-16T08:51:53.625Z,56.60
2023-02-16T08:52:53.614Z,58.40
2023-02-16T08:53:53.606Z,57.10
2023-02-16T08:54:53.599Z,52.30
2023-02-16T08:55:53.573Z,50.30
2023-02-16T08:56:53.562Z,55.70
2023-02-16T08:57:53.548Z,64.60
2023-02-16T08:58:53.534Z,60.90
2023-02-16T08:59:53.538Z,64.10
2023-02-16T09:00:53.527Z,61.20
2023-02-16T09:01:53.494Z,58.80
2023-02-16T09:02:53.491Z,59.70
2023-02-16T09:03:53.482Z,64.00
2023-02-16T09:04:53.478Z,63.30
2023-02-16T09:05:53.445Z,59.00
2023-02-16T09:06:53.450Z,61.20
2023-02-16T09:07:53.421Z,63.20
2023-02-16T09:08:53.403Z,59.50
2023-02-16T09:09:53.412Z,56.80
2023-02-16T09:10:53.378Z,54.30
2023-02-16T09:11:53.369Z,52.70
2023-02-16T09:12:53.357Z,55.50
2023-02-16T09:13:53.350Z,55.50
2023-02-16T09:14:53.341Z,54.50
2023-02-16T09:15:53.320Z,56.30
2023-02-16T09:16:53.324Z,60.10
2023-02-16T09:17:53.290Z,63.00
2023-02-16T09:18:53.275Z,58.80
2023-02-16T09:19:53.279Z,59.40
2023-02-16T09:20:53.253Z,58.70
2023-02-16T09:21:53.247Z,57.40
2023-02-16T09:22:53.251Z,65.30
2023-02-16T09:23:53.219Z,60.20
2023-02-16T09:24:53.217Z,61.20
2023-02-16T09:25:53.186Z,61.30
2023-02-16T09:26:53.181Z,60.30
2023-02-16T09:27:53.175Z,59.90
2023-02-16T09:28:53.149Z,56.80
2023-02-16T09:29:53.198Z,57.20
2023-02-16T09:30:53.178Z,55.30
2023-02-16T09:31:53.136Z,55.60
2023-02-16T09:32:53.096Z,54.90
2023-02-16T09:33:53.082Z,52.80
2023-02-16T09:34:53.086Z,54.00
2023-02-16T09:35:53.053Z,52.60
2023-02-16T09:36:53.054Z,53.80
2023-02-16T09:37:53.035Z,54.30
2023-02-16T09:38:53.041Z,50.90
2023-02-16T09:39:53.032Z,51.00
2023-02-16T09:40:52.993Z,50.10
2023-02-16T09:41:52.982Z,52.20
2023-02-16T09:42:52.971Z,50.50
2023-02-16T09:43:52.953Z,53.80
2023-02-16T09:44:52.957Z,51.30
2023-02-16T09:45:52.967Z,50.80
2023-02-16T09:46:52.922Z,52.60
2023-02-16T09:47:52.916Z,51.00
2023-02-16T09:48:52.893Z,46.30
2023-02-16T09:49:52.898Z,48.80
2023-02-16T09:50:54.586Z,54.20
2023-02-16T09:51:52.850Z,59.60
2023-02-16T09:52:52.849Z,54.60
2023-02-16T09:53:52.834Z,53.60
2023-02-16T09:54:52.854Z,56.40
2023-02-16T09:55:52.802Z,54.40
2023-02-16T09:56:52.787Z,55.70
2023-02-16T09:57:52.780Z,52.80
2023-02-16T09:58:52.761Z,52.10
2023-02-16T09:59:52.760Z,49.30
2023-02-16T10:00:52.732Z,51.20
2023-02-16T10:01:52.718Z,48.30
2023-02-16T10:02:52.710Z,48.40
2023-02-16T10:03:52.709Z,47.00
2023-02-16T10:04:52.695Z,45.80
2023-02-16T10:05:52.666Z,45.60
2023-02-16T10:06:52.658Z,49.70
2023-02-16T10:07:52.674Z,46.90
2023-02-16T10:08:52.687Z,44.90
2023-02-16T10:09:52.612Z,45.30
2023-02-16T10:10:52.661Z,46.90
2023-02-16T10:11:52.590Z,45.90
2023-02-16T10:12:52.583Z,46.30
2023-02-16T10:13:52.575Z,47.00
2023-02-16T10:14:52.551Z,43.40
2023-02-16T10:15:54.094Z,46.00
2023-02-16T10:16:52.527Z,42.80
2023-02-16T10:17:52.522Z,46.70
2023-02-16T10:18:52.502Z,44.10
2023-02-16T10:19:52.485Z,46.30
2023-02-16T10:20:52.493Z,47.10
2023-02-16T10:21:52.479Z,47.10
2023-02-16T10:22:52.449Z,48.30
2023-02-16T10:23:52.444Z,46.90
2023-02-16T10:24:52.424Z,47.10
2023-02-16T10:25:52.422Z,45.20
2023-02-16T10:26:52.423Z,49.00
2023-02-16T10:27:52.390Z,47.10
2023-02-16T10:28:52.378Z,47.50
2023-02-16T10:29:52.484Z,47.00
2023-02-16T10:30:52.486Z,46.90
2023-02-16T10:31:52.397Z,45.50
2023-02-16T10:32:52.324Z,47.20
2023-02-16T10:33:52.337Z,50.10
2023-02-16T10:34:52.302Z,50.10
2023-02-16T10:35:52.310Z,44.60
2023-02-16T10:36:52.271Z,47.90
2023-02-16T10:37:52.262Z,47.60
2023-02-16T10:38:52.253Z,46.60
2023-02-16T10:39:52.235Z,48.20
2023-02-16T10:40:52.237Z,46.00
2023-02-16T10:41:52.208Z,45.50
2023-02-16T10:42:52.263Z,46.60
2023-02-16T10:43:52.193Z,46.10
2023-02-16T10:44:52.190Z,45.40
2023-02-16T10:45:52.775Z,44.10
2023-02-16T10:46:52.149Z,43.20
2023-02-16T10:47:52.131Z,42.00
2023-02-16T10:48:52.130Z,42.70
2023-02-16T10:49:52.109Z,43.00
2023-02-16T10:50:52.108Z,41.50
2023-02-16T10:51:52.077Z,40.20
2023-02-16T10:52:52.071Z,42.30
2023-02-16T10:53:52.060Z,41.70
2023-02-16T10:54:52.045Z,41.80
2023-02-16T10:55:52.042Z,40.00
2023-02-16T10:56:52.011Z,39.30
2023-02-16T10:57:51.999Z,41.60
2023-02-16T10:58:52.008Z,44.60
2023-02-16T10:59:51.984Z,43.30
2023-02-16T11:00:51.972Z,42.00
2023-02-16T11:01:51.974Z,44.00
2023-02-16T11:02:51.934Z,42.60
2023-02-16T11:03:51.940Z,44.80
2023-02-16T11:04:51.920Z,41.20
2023-02-16T11:05:51.913Z,40.70
2023-02-16T11:06:51.879Z,41.10
2023-02-16T11:07:51.885Z,42.10
2023-02-16T11:08:51.866Z,38.00
2023-02-16T11:09:51.846Z,37.40
2023-02-16T11:10:51.848Z,37.50
2023-02-16T11:11:51.829Z,35.20
2023-02-16T11:12:51.806Z,36.40
2023-02-16T11:13:51.790Z,34.40
2023-02-16T11:14:51.808Z,34.50
2023-02-16T11:15:51.785Z,31.90
2023-02-16T11:16:51.764Z,33.70
2023-02-16T11:17:51.735Z,33.20
2023-02-16T11:18:51.728Z,34.80
2023-02-16T11:19:51.717Z,37.00
2023-02-16T11:20:51.704Z,34.80
2023-02-16T11:21:51.711Z,34.70
2023-02-16T11:22:51.683Z,36.30
2023-02-16T11:23:51.662Z,33.10
2023-02-16T11:24:51.649Z,34.40
2023-02-16T11:25:51.632Z,32.90
2023-02-16T11:26:51.632Z,34.60
2023-02-16T11:27:51.608Z,34.20
2023-02-16T11:28:51.600Z,34.80
2023-02-16T11:29:51.582Z,33.30
2023-02-16T11:30:51.682Z,33.40
2023-02-16T11:31:51.723Z,34.30
2023-02-16T11:32:51.548Z,33.20
2023-02-16T11:33:51.535Z,32.70
2023-02-16T11:34:51.519Z,32.90
2023-02-16T11:35:51.503Z,31.30
2023-02-16T11:36:51.502Z,29.60
2023-02-16T11:37:51.471Z,31.40
2023-02-16T11:38:51.464Z,30.60
2023-02-16T11:39:51.454Z,31.30
2023-02-16T11:40:51.434Z,31.00
2023-02-16T11:41:51.440Z,30.40
2023-02-16T11:42:51.411Z,29.90
2023-02-16T11:43:51.395Z,29.90
2023-02-16T11:44:51.390Z,31.00
2023-02-16T11:45:51.642Z,31.90
2023-02-16T11:46:51.421Z,29.90
2023-02-16T11:47:51.334Z,29.90
2023-02-16T11:48:51.324Z,30.10
2023-02-16T11:49:51.551Z,30.80
2023-02-16T11:50:52.249Z,30.40
2023-02-16T11:51:51.299Z,32.40
2023-02-16T11:52:51.269Z,33.20
2023-02-16T11:53:51.249Z,31.10
2023-02-16T11:54:51.240Z,32.90
2023-02-16T11:55:51.234Z,31.60
2023-02-16T11:56:51.289Z,32.00
2023-02-16T11:57:51.210Z,36.80
2023-02-16T11:58:51.188Z,34.50
2023-02-16T11:59:51.169Z,33.50
2023-02-16T12:00:51.157Z,33.70
2023-02-16T12:01:51.169Z,35.20
2023-02-16T12:02:51.149Z,35.60
2023-02-16T12:03:51.178Z,36.40
2023-02-16T12:04:51.284Z,36.40
2023-02-16T12:05:51.091Z,35.90
2023-02-16T12:06:51.097Z,33.50
2023-02-16T12:07:51.073Z,33.50
2023-02-16T12:08:51.052Z,34.80
2023-02-16T12:09:51.045Z,33.10
2023-02-16T12:10:51.032Z,35.70
2023-02-16T12:11:51.029Z,34.40
2023-02-16T12:12:50.998Z,33.70
2023-02-16T12:13:50.994Z,34.50
2023-02-16T12:14:50.983Z,34.90
2023-02-16T12:15:51.098Z,32.80
2023-02-16T12:16:50.967Z,32.70
2023-02-16T12:17:50.930Z,36.90
2023-02-16T12:18:50.945Z,34.60
2023-02-16T12:19:50.906Z,30.00
2023-02-16T12:20:50.894Z,33.00
2023-02-16T12:21:50.895Z,34.30
2023-02-16T12:22:50.865Z,32.80
2023-02-16T12:23:50.853Z,33.90
2023-02-16T12:24:50.843Z,32.30
2023-02-16T12:25:50.824Z,31.40
2023-02-16T12:26:50.842Z,30.80
2023-02-16T12:27:50.798Z,31.60
2023-02-16T12:28:50.811Z,33.30
2023-02-16T12:29:50.780Z,31.10
2023-02-16T12:30:50.808Z,31.70
2023-02-16T12:31:50.779Z,30.80
2023-02-16T12:32:50.752Z,34.10
2023-02-16T12:33:50.722Z,32.70
2023-02-16T12:34:50.726Z,31.90
2023-02-16T12:35:50.696Z,33.40
2023-02-16T12:36:50.680Z,32.70
2023-02-16T12:37:50.682Z,32.20
2023-02-16T12:38:50.661Z,33.40
2023-02-16T12:39:50.638Z,33.00